createdAt,value
2023-02-06T00:00:18.132Z,95.34
2023-02-06T00:00:51.582Z,95.78
2023-02-06T00:01:23.743Z,95.56
2023-02-06T00:01:55.314Z,95.40
2023-02-06T00:02:27.093Z,94.94
2023-02-06T00:02:58.757Z,94.96
2023-02-06T00:03:30.571Z,95.45
2023-02-06T00:04:02.386Z,94.89
2023-02-06T00:04:33.988Z,95.23
2023-02-06T00:05:05.925Z,94.97
2023-02-06T00:05:37.805Z,95.64
2023-02-06T00:06:09.455Z,95.52
2023-02-06T00:06:41.616Z,95.29
2023-02-06T00:07:13.120Z,95.33
2023-02-06T00:07:44.743Z,95.75
2023-02-06T00:08:16.314Z,95.66
2023-02-06T00:08:47.718Z,95.50
2023-02-06T00:09:19.158Z,95.27
2023-02-06T00:09:51.229Z,95.55
2023-02-06T00:10:23.184Z,95.11
2023-02-06T00:10:55.220Z,95.41
2023-02-06T00:11:26.908Z,95.41
2023-02-06T00:11:58.378Z,95.36
2023-02-06T00:12:30.027Z,95.60
2023-02-06T00:13:01.548Z,95.16
2023-02-06T00:13:36.804Z,95.27
2023-02-06T00:14:08.254Z,95.44
2023-02-06T00:14:39.822Z,95.77
2023-02-06T00:15:11.378Z,95.13
2023-02-06T00:15:42.971Z,94.66
2023-02-06T00:16:29.551Z,94.99
2023-02-06T00:17:01.346Z,95.08
2023-02-06T00:17:37.060Z,95.35
2023-02-06T00:18:08.577Z,94.82
2023-02-06T00:18:40.171Z,94.76
2023-02-06T00:19:11.836Z,94.54
2023-02-06T00:19:44.636Z,94.90
2023-02-06T00:20:16.284Z,94.90
2023-02-06T00:20:47.799Z,94.96
2023-02-06T00:21:21.939Z,94.83
2023-02-06T00:21:53.480Z,94.48
2023-02-06T00:22:25.046Z,94.89
2023-02-06T00:22:56.622Z,94.80
2023-02-06T00:23:28.172Z,95.08
2023-02-06T00:24:01.550Z,95.18
2023-02-06T00:24:33.028Z,95.18
2023-02-06T00:25:05.572Z,94.86
2023-02-06T00:25:37.598Z,95.02
2023-02-06T00:26:09.701Z,94.44
2023-02-06T00:26:41.179Z,94.80
2023-02-06T00:27:12.748Z,94.82
2023-02-06T00:28:03.018Z,94.96
2023-02-06T00:28:34.783Z,95.04
2023-02-06T00:29:06.369Z,95.05
2023-02-06T00:29:37.892Z,94.60
2023-02-06T00:30:09.746Z,95.12
2023-02-06T00:30:41.220Z,94.81
2023-02-06T00:31:13.171Z,94.96
2023-02-06T00:31:44.836Z,94.62
2023-02-06T00:32:16.663Z,94.77
2023-02-06T00:32:48.280Z,95.04
2023-02-06T00:33:21.234Z,95.10
2023-02-06T00:33:53.008Z,94.79
2023-02-06T00:34:24.903Z,94.85
2023-02-06T00:34:56.412Z,95.10
2023-02-06T00:35:27.833Z,95.15
2023-02-06T00:35:59.415Z,95.40
2023-02-06T00:36:30.996Z,95.38
2023-02-06T00:37:02.498Z,95.27
2023-02-06T00:37:33.999Z,95.24
2023-02-06T00:38:06.762Z,95.49
2023-02-06T00:38:38.945Z,95.36
2023-02-06T00:39:10.612Z,95.43
2023-02-06T00:39:42.125Z,95.81
2023-02-06T00:40:13.652Z,95.60
2023-02-06T00:40:45.421Z,95.06
2023-02-06T00:41:17.199Z,95.70
2023-02-06T00:41:50.243Z,95.67
2023-02-06T00:42:21.702Z,95.86
2023-02-06T00:42:53.816Z,95.94
2023-02-06T00:43:25.316Z,96.00
2023-02-06T00:43:56.914Z,95.89
2023-02-06T00:44:28.966Z,95.96
2023-02-06T00:45:00.622Z,95.86
2023-02-06T00:45:32.601Z,95.96
2023-02-06T00:46:04.181Z,96.31
2023-02-06T00:46:35.757Z,96.34
2023-02-06T00:47:07.531Z,95.80
2023-02-06T00:47:39.103Z,95.63
2023-02-06T00:48:12.553Z,96.31
2023-02-06T00:48:44.033Z,96.40
2023-02-06T00:49:15.896Z,96.11
2023-02-06T00:49:47.380Z,96.03
2023-02-06T00:50:18.991Z,96.52
2023-02-06T00:50:52.773Z,96.40
2023-02-06T00:51:24.288Z,96.29
2023-02-06T00:51:55.928Z,96.50
2023-02-06T00:52:27.426Z,96.34
2023-02-06T00:52:58.994Z,96.36
2023-02-06T00:53:30.465Z,96.48
2023-02-06T00:54:01.983Z,96.66
2023-02-06T00:54:33.620Z,96.53
2023-02-06T00:55:05.787Z,96.33
2023-02-06T00:55:37.349Z,96.46
2023-02-06T00:56:08.981Z,96.90
2023-02-06T00:56:40.718Z,96.62
2023-02-06T00:57:12.182Z,96.60
2023-02-06T00:57:43.868Z,96.58
2023-02-06T00:58:16.730Z,96.66
2023-02-06T00:58:48.401Z,96.81
2023-02-06T00:59:19.897Z,96.44
2023-02-06T00:59:51.419Z,96.56
2023-02-06T01:00:22.891Z,96.56
2023-02-06T01:00:54.617Z,97.10
2023-02-06T01:01:26.983Z,96.91
2023-02-06T01:01:58.511Z,96.75
2023-02-06T01:02:30.211Z,96.58
2023-02-06T01:03:02.224Z,96.88
2023-02-06T01:03:34.444Z,96.75
2023-02-06T01:04:06.108Z,97.11
2023-02-06T01:04:37.806Z,96.72
2023-02-06T01:05:09.426Z,96.64
2023-02-06T01:05:41.043Z,97.25
2023-02-06T01:06:12.601Z,96.74
2023-02-06T01:06:44.060Z,97.34
2023-02-06T01:07:15.739Z,97.41
2023-02-06T01:07:50.436Z,97.05
2023-02-06T01:08:22.043Z,97.25
2023-02-06T01:08:53.536Z,96.90
2023-02-06T01:09:25.260Z,97.08
2023-02-06T01:09:56.773Z,97.67
2023-02-06T01:10:28.170Z,97.55
2023-02-06T01:10:59.677Z,97.24
2023-02-06T01:11:31.274Z,97.21
2023-02-06T01:12:02.843Z,97.14
2023-02-06T01:12:35.593Z,97.08
2023-02-06T01:13:07.179Z,97.82
2023-02-06T01:13:38.751Z,97.29
2023-02-06T01:14:10.231Z,97.01
2023-02-06T01:14:41.966Z,97.63
2023-02-06T01:15:14.040Z,97.04
2023-02-06T01:15:45.601Z,97.24
2023-02-06T01:16:20.630Z,97.51
2023-02-06T01:16:52.372Z,97.51
2023-02-06T01:17:23.752Z,97.74
2023-02-06T01:18:13.634Z,97.68
2023-02-06T01:18:45.532Z,97.44
2023-02-06T01:19:17.236Z,97.17
2023-02-06T01:19:48.829Z,97.05
2023-02-06T01:20:21.502Z,97.41
2023-02-06T01:20:53.187Z,97.62
2023-02-06T01:21:25.441Z,97.24
2023-02-06T01:21:56.830Z,97.36
2023-02-06T01:22:28.376Z,97.46
2023-02-06T01:22:59.779Z,97.59
2023-02-06T01:23:31.170Z,97.32
2023-02-06T01:24:03.303Z,97.35
2023-02-06T01:24:35.669Z,97.88
2023-02-06T01:25:07.570Z,97.68
2023-02-06T01:25:39.064Z,97.59
2023-02-06T01:26:13.595Z,97.29
2023-02-06T01:26:45.002Z,97.75
2023-02-06T01:27:16.754Z,97.55
2023-02-06T01:27:48.484Z,97.48
2023-02-06T01:28:19.980Z,97.26
2023-02-06T01:28:51.494Z,97.62
2023-02-06T01:29:22.919Z,97.79
2023-02-06T01:29:54.429Z,97.39
2023-02-06T01:30:26.091Z,97.82
2023-02-06T01:30:57.680Z,97.44
2023-02-06T01:31:30.584Z,97.55
2023-02-06T01:32:02.011Z,97.78
2023-02-06T01:32:38.038Z,97.39
2023-02-06T01:33:09.531Z,97.86
2023-02-06T01:33:41.097Z,97.74
2023-02-06T01:34:12.537Z,97.91
2023-02-06T01:34:44.072Z,97.85
2023-02-06T01:35:15.637Z,97.43
2023-02-06T01:35:55.123Z,97.46
2023-02-06T01:36:27.472Z,97.60
2023-02-06T01:37:17.234Z,97.77
2023-02-06T01:37:48.798Z,97.68
2023-02-06T01:38:20.206Z,97.74
2023-02-06T01:38:52.354Z,97.83
2023-02-06T01:39:42.155Z,97.26
2023-02-06T01:40:16.458Z,97.47
2023-02-06T01:40:47.828Z,97.90
2023-02-06T01:41:22.325Z,97.83
2023-02-06T01:41:53.855Z,97.64
2023-02-06T01:42:25.547Z,97.90
2023-02-06T01:42:57.156Z,97.75
2023-02-06T01:43:33.259Z,97.87
2023-02-06T01:44:13.407Z,97.48
2023-02-06T01:44:45.192Z,98.03
2023-02-06T01:45:35.985Z,97.92
2023-02-06T01:46:08.704Z,97.79
2023-02-06T01:46:42.354Z,98.06
2023-02-06T01:47:13.854Z,98.35
2023-02-06T01:47:45.516Z,97.69
2023-02-06T01:48:20.964Z,98.33
2023-02-06T01:48:54.508Z,98.08
2023-02-06T01:49:33.090Z,98.09
2023-02-06T01:50:05.182Z,98.39
2023-02-06T01:50:41.556Z,98.08
2023-02-06T01:51:24.696Z,98.24
2023-02-06T01:52:01.068Z,98.40
2023-02-06T01:52:33.979Z,98.36
2023-02-06T01:53:06.540Z,98.53
2023-02-06T01:53:40.573Z,98.54
2023-02-06T01:54:14.657Z,98.41
2023-02-06T01:54:50.757Z,98.08
2023-02-06T01:55:22.411Z,97.91
2023-02-06T01:55:56.145Z,98.59
2023-02-06T01:56:33.029Z,98.89
2023-02-06T01:57:07.116Z,98.42
2023-02-06T01:57:40.229Z,98.65
2023-02-06T01:58:16.029Z,98.51
2023-02-06T01:58:58.029Z,98.93
2023-02-06T01:59:29.666Z,98.50
2023-02-06T02:00:06.277Z,98.59
2023-02-06T02:00:38.092Z,98.63
2023-02-06T02:01:11.178Z,98.42
2023-02-06T02:01:43.203Z,98.40
2023-02-06T02:02:14.784Z,98.90
2023-02-06T02:02:49.046Z,98.81
2023-02-06T02:03:20.966Z,98.29
2023-02-06T02:03:56.177Z,98.73
2023-02-06T02:04:28.806Z,98.51
2023-02-06T02:05:02.099Z,98.24
2023-02-06T02:05:34.340Z,98.28
2023-02-06T02:06:10.165Z,98.25
2023-02-06T02:06:41.832Z,98.21
2023-02-06T02:07:22.962Z,97.70
2023-02-06T02:08:02.060Z,97.91
2023-02-06T02:08:38.696Z,97.76
2023-02-06T02:09:10.611Z,97.56
2023-02-06T02:09:42.204Z,98.43
2023-02-06T02:10:13.738Z,97.89
2023-02-06T02:10:45.740Z,97.49
2023-02-06T02:11:20.929Z,97.48
2023-02-06T02:11:52.416Z,98.02
2023-02-06T02:12:23.930Z,97.82
2023-02-06T02:12:55.395Z,98.06
2023-02-06T02:13:26.936Z,97.87
2023-02-06T02:13:59.494Z,98.10
2023-02-06T02:14:31.193Z,98.13
2023-02-06T02:15:02.922Z,98.19
2023-02-06T02:15:52.066Z,98.67
2023-02-06T02:16:40.166Z,97.87
2023-02-06T02:17:29.965Z,98.22
2023-02-06T02:18:16.877Z,98.26
2023-02-06T02:19:36.310Z,97.72
2023-02-06T02:20:38.484Z,97.72
2023-02-06T02:21:40.121Z,97.85
2023-02-06T02:22:40.253Z,97.75
2023-02-06T02:23:32.878Z,97.69
2023-02-06T02:24:25.219Z,97.60
2023-02-06T02:25:32.452Z,97.46
2023-02-06T02:26:32.484Z,97.94
2023-02-06T02:27:19.322Z,97.49
2023-02-06T02:28:37.830Z,97.49
2023-02-06T02:29:53.203Z,97.60
2023-02-06T02:30:39.278Z,97.66
2023-02-06T02:31:32.285Z,97.63
2023-02-06T02:32:18.294Z,97.92
2023-02-06T02:33:35.008Z,98.15
2023-02-06T02:34:34.058Z,97.67
2023-02-06T02:35:37.457Z,97.64
2023-02-06T02:36:22.284Z,97.46
2023-02-06T02:37:00.727Z,97.86
2023-02-06T02:37:52.274Z,97.87
2023-02-06T02:38:44.632Z,97.73
2023-02-06T02:39:31.653Z,97.69
2023-02-06T02:40:40.199Z,97.66
2023-02-06T02:41:36.073Z,97.48
2023-02-06T02:42:13.645Z,97.56
2023-02-06T02:43:22.231Z,97.74
2023-02-06T02:44:10.672Z,97.72
2023-02-06T02:44:50.494Z,97.65
2023-02-06T02:45:33.146Z,97.54
2023-02-06T02:46:20.402Z,97.72
2023-02-06T02:46:55.547Z,97.99
2023-02-06T02:47:34.913Z,97.68
2023-02-06T02:48:15.022Z,97.90
2023-02-06T02:48:50.869Z,97.54
2023-02-06T02:49:27.538Z,97.95
2023-02-06T02:50:00.826Z,98.34
2023-02-06T02:50:33.268Z,98.39
2023-02-06T02:51:05.560Z,98.30
2023-02-06T02:51:38.913Z,98.10
2023-02-06T02:52:10.662Z,97.96
2023-02-06T02:52:42.346Z,97.66
2023-02-06T02:53:14.908Z,97.85
2023-02-06T02:53:46.420Z,98.29
2023-02-06T02:54:17.946Z,97.75
2023-02-06T02:54:49.389Z,97.59
2023-02-06T02:55:23.244Z,98.18
2023-02-06T02:55:55.338Z,98.25
2023-02-06T02:56:27.622Z,98.37
2023-02-06T02:57:14.385Z,98.40
2023-02-06T02:57:47.446Z,98.27
2023-02-06T02:58:23.231Z,97.88
2023-02-06T02:59:03.014Z,98.16
2023-02-06T02:59:37.351Z,97.88
2023-02-06T03:00:10.083Z,98.08
2023-02-06T03:00:47.506Z,97.82
2023-02-06T03:01:32.035Z,97.66
2023-02-06T03:02:21.422Z,97.72
2023-02-06T03:02:55.514Z,97.61
2023-02-06T03:03:29.768Z,97.35
2023-02-06T03:04:07.334Z,97.50
2023-02-06T03:04:48.720Z,97.74
2023-02-06T03:05:24.378Z,97.24
2023-02-06T03:06:03.959Z,97.27
2023-02-06T03:06:49.881Z,97.19
2023-02-06T03:07:53.237Z,97.07
2023-02-06T03:08:45.398Z,97.16
2023-02-06T03:09:28.303Z,97.09
2023-02-06T03:10:18.436Z,96.92
2023-02-06T03:11:09.196Z,96.74
2023-02-06T03:11:47.215Z,96.70
2023-02-06T03:12:56.158Z,96.33
2023-02-06T03:13:49.989Z,96.44
2023-02-06T03:14:25.362Z,96.37
2023-02-06T03:15:04.150Z,96.42
2023-02-06T03:15:54.916Z,95.93
2023-02-06T03:16:36.214Z,96.42
2023-02-06T03:17:15.041Z,96.50
2023-02-06T03:17:54.781Z,96.22
2023-02-06T03:18:37.851Z,96.29
2023-02-06T03:19:15.122Z,96.59
2023-02-06T03:19:53.354Z,96.47
2023-02-06T03:20:25.599Z,96.56
2023-02-06T03:20:58.878Z,96.77
2023-02-06T03:21:33.709Z,96.41
2023-02-06T03:22:05.912Z,96.33
2023-02-06T03:22:38.777Z,96.22
2023-02-06T03:23:14.948Z,95.82
2023-02-06T03:23:51.057Z,96.09
2023-02-06T03:24:28.912Z,96.46
2023-02-06T03:25:02.851Z,96.37
2023-02-06T03:25:39.330Z,95.94
2023-02-06T03:26:15.915Z,95.87
2023-02-06T03:26:51.230Z,96.04
2023-02-06T03:27:23.033Z,95.63
2023-02-06T03:27:55.090Z,96.06
2023-02-06T03:28:32.851Z,95.90
2023-02-06T03:29:08.475Z,95.29
2023-02-06T03:29:42.583Z,95.92
2023-02-06T03:30:16.452Z,96.05
2023-02-06T03:30:51.085Z,95.99
2023-02-06T03:31:49.545Z,95.60
2023-02-06T03:32:24.529Z,95.21
2023-02-06T03:33:04.642Z,95.06
2023-02-06T03:33:43.453Z,95.81
2023-02-06T03:34:34.823Z,95.80
2023-02-06T03:35:16.338Z,95.69
2023-02-06T03:35:47.878Z,95.78
2023-02-06T03:36:20.235Z,95.36
2023-02-06T03:36:53.435Z,95.64
2023-02-06T03:37:26.834Z,95.92
2023-02-06T03:37:58.409Z,95.49
2023-02-06T03:38:29.979Z,95.49
2023-02-06T03:39:01.802Z,95.54
2023-02-06T03:39:34.455Z,96.02
2023-02-06T03:40:07.926Z,95.83
2023-02-06T03:40:43.317Z,95.62
2023-02-06T03:41:16.427Z,95.74
2023-02-06T03:41:49.596Z,96.19
2023-02-06T03:42:22.714Z,96.08
2023-02-06T03:43:17.525Z,95.87
2023-02-06T03:43:51.781Z,95.76
2023-02-06T03:44:30.292Z,96.37
2023-02-06T03:45:08.467Z,96.29
2023-02-06T03:45:42.734Z,96.21
2023-02-06T03:46:17.799Z,95.83
2023-02-06T03:46:50.875Z,96.04
2023-02-06T03:47:24.176Z,96.21
2023-02-06T03:48:01.692Z,96.10
2023-02-06T03:48:37.907Z,95.87
2023-02-06T03:49:12.782Z,95.96
2023-02-06T03:49:47.404Z,96.12
2023-02-06T03:50:19.975Z,95.91
2023-02-06T03:50:56.209Z,95.76
2023-02-06T03:51:35.174Z,95.68
2023-02-06T03:52:13.236Z,95.16
2023-02-06T03:52:48.872Z,95.62
2023-02-06T03:53:22.315Z,95.16
2023-02-06T03:53:57.719Z,95.74
2023-02-06T03:54:30.528Z,95.08
2023-02-06T03:55:08.939Z,95.18
2023-02-06T03:55:42.920Z,94.86
2023-02-06T03:56:35.275Z,95.37
2023-02-06T03:57:11.530Z,95.08
2023-02-06T03:57:47.803Z,95.19
2023-02-06T03:58:19.392Z,95.23
2023-02-06T03:58:52.495Z,95.19
2023-02-06T03:59:26.105Z,95.21
2023-02-06T03:59:57.692Z,95.01
2023-02-06T04:00:30.967Z,95.06
2023-02-06T04:01:05.619Z,95.31
2023-02-06T04:01:47.516Z,95.08
2023-02-06T04:02:20.795Z,94.94
2023-02-06T04:02:53.528Z,95.25
2023-02-06T04:03:25.975Z,95.18
2023-02-06T04:03:58.603Z,95.29
2023-02-06T04:04:37.008Z,95.13
2023-02-06T04:05:08.638Z,95.14
2023-02-06T04:05:40.551Z,95.27
2023-02-06T04:06:12.111Z,95.09
2023-02-06T04:06:43.672Z,95.53
2023-02-06T04:07:26.728Z,95.39
2023-02-06T04:07:58.344Z,95.15
2023-02-06T04:08:29.938Z,95.33
2023-02-06T04:09:01.487Z,95.00
2023-02-06T04:09:33.100Z,95.05
2023-02-06T04:10:05.070Z,95.25
2023-02-06T04:10:36.545Z,94.91
2023-02-06T04:11:08.304Z,94.92
2023-02-06T04:11:39.808Z,95.26
2023-02-06T04:12:11.662Z,95.30
2023-02-06T04:12:43.205Z,95.19
2023-02-06T04:13:14.870Z,94.78
2023-02-06T04:13:46.291Z,94.95
2023-02-06T04:14:17.947Z,95.09
2023-02-06T04:14:49.941Z,95.10
2023-02-06T04:15:21.849Z,94.95
2023-02-06T04:15:53.507Z,95.00
2023-02-06T04:16:25.053Z,95.23
2023-02-06T04:16:56.675Z,95.34
2023-02-06T04:17:43.512Z,95.19
2023-02-06T04:18:20.067Z,95.01
2023-02-06T04:18:51.837Z,95.06
2023-02-06T04:19:23.638Z,95.22
2023-02-06T04:19:55.050Z,95.29
2023-02-06T04:20:26.680Z,95.60
2023-02-06T04:21:06.776Z,95.52
2023-02-06T04:21:38.281Z,95.47
2023-02-06T04:22:13.264Z,95.33
2023-02-06T04:22:45.862Z,95.11
2023-02-06T04:23:17.696Z,95.40
2023-02-06T04:23:49.204Z,95.12
2023-02-06T04:24:20.816Z,95.57
2023-02-06T04:24:52.353Z,95.49
2023-02-06T04:25:24.343Z,95.73
2023-02-06T04:25:55.798Z,95.79
2023-02-06T04:26:27.208Z,95.50
2023-02-06T04:26:59.203Z,95.71
2023-02-06T04:27:30.906Z,95.73
2023-02-06T04:28:02.390Z,95.76
2023-02-06T04:28:33.928Z,95.51
2023-02-06T04:29:05.867Z,95.58
2023-02-06T04:29:37.612Z,95.59
2023-02-06T04:30:09.865Z,95.65
2023-02-06T04:30:41.547Z,95.86
2023-02-06T04:31:13.179Z,95.78
2023-02-06T04:31:44.776Z,95.66
2023-02-06T04:32:16.541Z,95.39
2023-02-06T04:32:48.086Z,95.47
2023-02-06T04:33:19.733Z,95.58
2023-02-06T04:33:51.226Z,95.46
2023-02-06T04:34:23.100Z,95.61
2023-02-06T04:34:54.689Z,95.55
2023-02-06T04:35:26.232Z,95.49
2023-02-06T04:35:57.736Z,95.36
2023-02-06T04:36:29.312Z,95.70
2023-02-06T04:37:02.163Z,96.01
2023-02-06T04:37:33.764Z,95.67
2023-02-06T04:38:05.661Z,95.42
2023-02-06T04:38:37.182Z,95.48
2023-02-06T04:39:08.670Z,95.62
2023-02-06T04:39:40.250Z,95.65
2023-02-06T04:40:12.163Z,95.49
2023-02-06T04:40:43.641Z,95.37
2023-02-06T04:41:15.208Z,95.39
2023-02-06T04:41:46.664Z,95.29
2023-02-06T04:42:19.742Z,95.19
2023-02-06T04:42:51.180Z,95.66
2023-02-06T04:43:22.635Z,95.53
2023-02-06T04:43:54.155Z,95.53
2023-02-06T04:44:25.640Z,95.63
2023-02-06T04:44:57.336Z,95.64
2023-02-06T04:45:28.907Z,95.60
2023-02-06T04:46:00.429Z,95.72
2023-02-06T04:46:32.070Z,96.03
2023-02-06T04:47:03.692Z,95.46
2023-02-06T04:47:35.212Z,95.18
2023-02-06T04:48:06.780Z,95.66
2023-02-06T04:48:38.410Z,96.07
2023-02-06T04:49:13.407Z,95.97
2023-02-06T04:49:44.961Z,95.32
2023-02-06T04:50:17.581Z,95.57
2023-02-06T04:50:49.966Z,95.45
2023-02-06T04:51:21.437Z,95.63
2023-02-06T04:51:53.104Z,95.98
2023-02-06T04:52:24.710Z,96.10
2023-02-06T04:52:56.332Z,95.96
2023-02-06T04:53:28.028Z,95.96
2023-02-06T04:53:59.705Z,96.34
2023-02-06T04:54:32.777Z,96.50
2023-02-06T04:55:04.417Z,96.19
2023-02-06T04:55:36.502Z,96.38
2023-02-06T04:56:11.707Z,96.29
2023-02-06T04:56:44.371Z,96.51
2023-02-06T04:57:15.817Z,96.50
2023-02-06T04:57:47.380Z,96.41
2023-02-06T04:58:18.850Z,96.13
2023-02-06T04:58:50.400Z,96.25
2023-02-06T04:59:22.021Z,96.07
2023-02-06T04:59:53.784Z,96.32
2023-02-06T05:00:25.503Z,96.83
2023-02-06T05:00:56.977Z,97.23
2023-02-06T05:01:28.646Z,96.87
2023-02-06T05:02:00.291Z,96.73
2023-02-06T05:02:37.574Z,97.13
2023-02-06T05:03:09.076Z,97.28
2023-02-06T05:03:40.708Z,97.10
2023-02-06T05:04:12.241Z,97.21
2023-02-06T05:04:43.722Z,96.88
2023-02-06T05:05:15.365Z,96.63
2023-02-06T05:05:46.906Z,96.69
2023-02-06T05:06:18.580Z,96.86
2023-02-06T05:06:50.132Z,96.86
2023-02-06T05:07:22.001Z,96.83
2023-02-06T05:07:53.858Z,96.93
2023-02-06T05:08:25.431Z,96.86
2023-02-06T05:08:59.164Z,96.74
2023-02-06T05:09:30.703Z,96.89
2023-02-06T05:10:03.405Z,96.37
2023-02-06T05:10:34.916Z,96.72
2023-02-06T05:11:07.057Z,96.54
2023-02-06T05:11:38.460Z,96.57
2023-02-06T05:12:58.725Z,96.49
2023-02-06T05:13:30.499Z,96.64
2023-02-06T05:14:02.156Z,96.68
2023-02-06T05:14:33.631Z,96.91
2023-02-06T05:15:05.510Z,96.90
2023-02-06T05:15:37.646Z,96.87
2023-02-06T05:16:12.748Z,97.15
2023-02-06T05:16:44.237Z,96.79
2023-02-06T05:17:15.989Z,97.11
2023-02-06T05:17:47.491Z,96.95
2023-02-06T05:18:19.164Z,96.96
2023-02-06T05:18:55.703Z,96.99
2023-02-06T05:19:27.239Z,97.04
2023-02-06T05:19:59.199Z,97.08
2023-02-06T05:20:31.621Z,96.83
2023-02-06T05:21:03.241Z,96.68
2023-02-06T05:21:34.888Z,96.87
2023-02-06T05:22:55.433Z,96.93
2023-02-06T05:23:26.875Z,97.06
2023-02-06T05:23:58.422Z,97.22
2023-02-06T05:24:30.020Z,97.11
2023-02-06T05:25:01.567Z,97.55
2023-02-06T05:25:34.888Z,97.31
2023-02-06T05:26:06.680Z,97.92
2023-02-06T05:26:38.137Z,97.82
2023-02-06T05:27:09.619Z,98.12
2023-02-06T05:27:41.383Z,98.30
2023-02-06T05:28:12.816Z,98.09
2023-02-06T05:28:44.950Z,98.20
2023-02-06T05:29:16.755Z,98.08
2023-02-06T05:29:48.255Z,98.57
2023-02-06T05:30:20.004Z,98.66
2023-02-06T05:30:51.783Z,98.51
2023-02-06T05:31:23.371Z,98.79
2023-02-06T05:31:55.287Z,98.74
2023-02-06T05:32:26.785Z,98.44
2023-02-06T05:32:58.580Z,98.47
2023-02-06T05:33:30.511Z,98.35
2023-02-06T05:34:02.132Z,98.20
2023-02-06T05:34:33.702Z,98.30
2023-02-06T05:35:05.676Z,97.99
2023-02-06T05:35:41.667Z,98.00
2023-02-06T05:36:13.394Z,97.83
2023-02-06T05:36:45.012Z,97.92
2023-02-06T05:37:16.534Z,97.50
2023-02-06T05:37:48.159Z,97.53
2023-02-06T05:38:19.602Z,97.25
2023-02-06T05:38:51.391Z,97.02
2023-02-06T05:39:23.077Z,97.18
2023-02-06T05:39:54.726Z,97.24
2023-02-06T05:40:26.284Z,97.24
2023-02-06T05:40:57.930Z,97.16
2023-02-06T05:41:29.524Z,96.98
2023-02-06T05:42:01.035Z,96.79
2023-02-06T05:42:32.539Z,96.99
2023-02-06T05:43:04.487Z,96.92
2023-02-06T05:43:36.368Z,96.93
2023-02-06T05:44:07.848Z,96.98
2023-02-06T05:44:39.583Z,96.86
2023-02-06T05:45:11.045Z,96.72
2023-02-06T05:45:42.528Z,97.00
2023-02-06T05:46:14.161Z,97.07
2023-02-06T05:46:48.389Z,96.78
2023-02-06T05:47:19.918Z,96.96
2023-02-06T05:47:52.485Z,96.83
2023-02-06T05:48:24.028Z,97.10
2023-02-06T05:48:55.550Z,97.12
2023-02-06T05:49:27.053Z,97.12
2023-02-06T05:49:58.755Z,97.26
2023-02-06T05:50:30.229Z,97.07
2023-02-06T05:51:01.805Z,97.20
2023-02-06T05:51:33.510Z,96.76
2023-02-06T05:52:05.356Z,96.85
2023-02-06T05:52:36.976Z,97.12
2023-02-06T05:53:08.324Z,96.74
2023-02-06T05:53:39.723Z,96.78
2023-02-06T05:54:11.595Z,96.75
2023-02-06T05:54:43.470Z,96.82
2023-02-06T05:55:16.985Z,96.89
2023-02-06T05:55:48.450Z,97.00
2023-02-06T05:56:20.100Z,96.56
2023-02-06T05:56:51.601Z,97.23
2023-02-06T05:57:23.288Z,96.46
2023-02-06T05:57:54.786Z,96.65
2023-02-06T05:58:26.295Z,96.70
2023-02-06T05:58:57.804Z,96.79
2023-02-06T05:59:29.548Z,96.61
2023-02-06T06:00:01.580Z,96.88
2023-02-06T06:00:33.755Z,96.78
2023-02-06T06:01:05.423Z,96.74
2023-02-06T06:01:36.927Z,96.91
2023-02-06T06:02:08.896Z,97.22
2023-02-06T06:02:40.503Z,96.91
2023-02-06T06:03:12.213Z,97.31
2023-02-06T06:03:43.856Z,96.98
2023-02-06T06:04:16.121Z,97.54
2023-02-06T06:04:47.767Z,97.46
2023-02-06T06:05:19.428Z,97.52
2023-02-06T06:05:53.389Z,97.61
2023-02-06T06:06:25.111Z,97.44
2023-02-06T06:06:56.882Z,97.50
2023-02-06T06:07:28.288Z,97.77
2023-02-06T06:08:00.005Z,97.48
2023-02-06T06:08:32.122Z,97.67
2023-02-06T06:09:04.006Z,97.28
2023-02-06T06:09:35.780Z,97.59
2023-02-06T06:10:07.731Z,97.56
2023-02-06T06:10:39.187Z,97.61
2023-02-06T06:11:10.676Z,97.68
2023-02-06T06:11:42.156Z,97.59
2023-02-06T06:12:32.166Z,97.88
2023-02-06T06:13:04.066Z,97.75
2023-02-06T06:13:35.506Z,97.90
2023-02-06T06:14:06.959Z,97.79
2023-02-06T06:14:38.398Z,97.76
2023-02-06T06:15:10.327Z,98.26
2023-02-06T06:15:42.164Z,98.21
2023-02-06T06:16:13.789Z,98.29
2023-02-06T06:16:45.423Z,98.22
2023-02-06T06:17:16.967Z,98.15
2023-02-06T06:17:48.570Z,98.70
2023-02-06T06:18:21.469Z,98.62
2023-02-06T06:18:53.456Z,98.40
2023-02-06T06:19:25.357Z,98.71
2023-02-06T06:19:56.831Z,99.38
2023-02-06T06:20:28.387Z,99.10
2023-02-06T06:20:59.969Z,99.02
2023-02-06T06:21:31.515Z,99.21
2023-02-06T06:22:03.206Z,99.01
2023-02-06T06:22:34.633Z,99.51
2023-02-06T06:23:06.149Z,99.30
2023-02-06T06:23:37.591Z,99.28
2023-02-06T06:24:09.484Z,99.22
2023-02-06T06:24:40.880Z,99.38
2023-02-06T06:25:12.331Z,99.60
2023-02-06T06:25:44.007Z,99.84
2023-02-06T06:26:16.356Z,99.81
2023-02-06T06:26:47.848Z,99.58
2023-02-06T06:27:19.458Z,99.58
2023-02-06T06:27:51.084Z,98.99
2023-02-06T06:28:22.760Z,99.73
2023-02-06T06:28:54.202Z,99.57
2023-02-06T06:29:26.613Z,99.16
2023-02-06T06:29:58.038Z,98.94
2023-02-06T06:30:29.788Z,98.86
2023-02-06T06:31:03.198Z,98.87
2023-02-06T06:31:34.745Z,98.87
2023-02-06T06:32:06.440Z,98.61
2023-02-06T06:33:27.144Z,98.92
2023-02-06T06:33:58.566Z,98.61
2023-02-06T06:34:30.363Z,98.73
2023-02-06T06:35:01.941Z,98.73
2023-02-06T06:35:33.890Z,98.47
2023-02-06T06:36:06.736Z,98.48
2023-02-06T06:36:38.213Z,98.55
2023-02-06T06:37:09.707Z,98.87
2023-02-06T06:37:41.332Z,98.70
2023-02-06T06:38:12.716Z,98.48
2023-02-06T06:38:44.219Z,98.75
2023-02-06T06:39:15.731Z,98.34
2023-02-06T06:39:47.179Z,98.68
2023-02-06T06:40:18.750Z,98.47
2023-02-06T06:41:51.431Z,98.00
2023-02-06T06:42:22.972Z,98.20
2023-02-06T06:42:54.450Z,98.07
2023-02-06T06:43:26.311Z,97.83
2023-02-06T06:43:58.730Z,98.39
2023-02-06T06:45:20.784Z,98.08
2023-02-06T06:45:52.385Z,98.07
2023-02-06T06:46:23.993Z,98.08
2023-02-06T06:46:55.413Z,98.18
2023-02-06T06:47:26.770Z,98.04
2023-02-06T06:47:58.378Z,97.92
2023-02-06T06:48:30.288Z,98.01
2023-02-06T06:49:01.877Z,97.74
2023-02-06T06:49:33.533Z,97.75
2023-02-06T06:50:06.450Z,97.81
2023-02-06T06:50:38.221Z,97.98
2023-02-06T06:51:10.133Z,98.02
2023-02-06T06:51:44.139Z,97.81
2023-02-06T06:52:24.514Z,97.78
2023-02-06T06:52:56.773Z,97.87
2023-02-06T06:53:28.568Z,97.89
2023-02-06T06:54:00.131Z,97.86
2023-02-06T07:19:01.574Z,98.17
2023-02-06T07:26:31.280Z,98.44
2023-02-06T08:00:05.589Z,100.00
2023-02-06T08:04:02.859Z,100.00
2023-02-06T08:48:07.522Z,100.00
2023-02-06T08:49:19.348Z,100.00
2023-02-06T08:49:51.150Z,100.00
2023-02-06T09:59:52.481Z,100.00
2023-02-06T10:47:54.472Z,98.73
2023-02-06T11:31:08.960Z,90.01
2023-02-06T17:32:12.731Z,83.14
2023-02-06T17:32:49.833Z,83.18
2023-02-06T17:33:28.212Z,83.01
2023-02-06T17:34:05.093Z,83.00
2023-02-06T17:34:37.527Z,83.59
2023-02-06T17:35:09.275Z,83.89
2023-02-06T17:35:46.111Z,83.78
2023-02-06T17:36:33.936Z,83.87
2023-02-06T17:37:10.847Z,84.34
2023-02-06T17:37:45.546Z,83.85
2023-02-06T17:38:32.468Z,84.22
2023-02-06T17:39:09.825Z,84.28
2023-02-06T17:39:46.578Z,84.24
2023-02-06T17:40:34.566Z,84.25
2023-02-06T17:41:29.564Z,84.49
2023-02-06T17:42:09.390Z,84.89
2023-02-06T17:42:46.260Z,84.58
2023-02-06T17:43:23.096Z,84.46
2023-02-06T17:44:05.350Z,84.92
2023-02-06T17:44:44.462Z,84.68
2023-02-06T17:45:18.965Z,84.56
2023-02-06T17:45:50.420Z,84.23
2023-02-06T17:46:25.775Z,84.33
2023-02-06T17:47:04.741Z,84.44
2023-02-06T17:47:38.033Z,84.42
2023-02-06T17:48:09.893Z,84.03
2023-02-06T17:48:44.945Z,84.09
2023-02-06T17:49:19.587Z,84.16
2023-02-06T17:50:01.402Z,84.34
2023-02-06T17:50:40.961Z,84.36
2023-02-06T17:51:15.671Z,84.25
2023-02-06T17:51:51.371Z,84.54
2023-02-06T17:52:24.574Z,84.99
2023-02-06T17:53:15.655Z,84.79
2023-02-06T17:54:05.521Z,84.57
2023-02-06T17:54:43.223Z,84.41
2023-02-06T17:55:19.667Z,84.51
2023-02-06T17:56:02.722Z,84.70
2023-02-06T17:57:37.650Z,84.71
2023-02-06T17:58:16.959Z,84.18
2023-02-06T17:58:53.392Z,84.49
2023-02-06T17:59:26.458Z,84.69
2023-02-06T18:00:03.391Z,84.27
2023-02-06T18:00:38.217Z,84.64
2023-02-06T18:01:30.233Z,84.25
2023-02-06T18:02:11.293Z,84.84
2023-02-06T18:02:52.541Z,84.44